Weather at Harry-Walt Airport [CLOSED]

Public forecast

Using degrees Fahrenheit for public forecast. Weather courtesy of forecast.io.

Closest aviation weather report (METAR) to Harry-Walt Airport

Closest report is Cambridge Municipal Airport, 12.4 nm (22.9 km) N.

2024/07/25 10:35 (retrieved 15 minutes ago)

KCBG 251035Z AUTO 00000KT 10SM CLR 11/09 A3024 RMK AO2

Closest aviation forecast (TAF) to Harry-Walt Airport

Closest forecast is Minneapolis–Saint Paul International Airport / Wold–Chamberlain Field, 28.3 nm (52.5 km) S.

2024/07/25 09:00 Ammendment (retrieved 2 hours ago)

TAF AMD KMSP 250857Z 2509/2612 11004KT P6SM SKC FM251600 15009KT P6SM FEW050 FM260100 15008KT P6SM SKC